KMPO Airport (Pocono Mountains Muni) Information

FAA: MPO - ICAO: KMPO

KMPO Airport Location

State Pennsylvania
County Monroe
City Mount Pocono
KMPO Airport is 2 miles northwest of Mount Pocono, PA.
Latitude 41-08-15.7000N
Longitude 075-22-48.2000W
Elevation 1,915ft

KMPO Airport METARs

METAR KMPO 161753Z AUTO 06006KT 10SM SCT017 BKN029 OVC044 19/17 A3026 RMK AO2 SLP242 T01940172 10217 20161 53003
Altimeter 30.26"
Temperature 19.4°C (66.9°F)
Wind 60° at 6KT
Clouds scattered at 1,700ft broken at 2,900ft overcast at 4,400ft
Visibility 10.0mi
Time observed: 2021-09-16T17:53:00Z

KMPO Airport Details

Status Operational
Activation July 1938
Ownership Public
Usage Public
Chart NEW YORK
ATC on-site No
Beacon schedule sunset-sunrise
Beacon color clear green

KMPO Airport Contacts

Owner POCONO MTNS MUNI ARPT AUTH
Owner address 188 AIRPORT DR, TOBYHANNA, PA 18466
Owner phone 570-839-0258
Manager GABE MONZO
Manager address 605 AIRPORT RD, BELLE VERNON, PA 15012
Manager phone 724-379-6980

KMPO Airport (Pocono Mountains Muni) Radio Frequencies

KMPO (Airport) Radio Frequencies

UNICOM 122.7
Common traffic advisory frequency (CTAF) 122.7